Aviation Digital Data Service (ADDS)

Output produced by METARs form (1932 UTC 31 January 2023)
found at http://www.aviationweather.gov/metar/data/
 
KAOO 311853Z AUTO 36007KT 10SM OVC023 M02/M07 A3017 RMK AO2 SLP234 T10221072
KAOO 311753Z AUTO 32009KT 10SM BKN019 OVC027 M02/M07 A3020 RMK AO2 SLP242 T10221072 11011 21022 58006
KAOO 311653Z AUTO 32008KT 10SM OVC021 M02/M06 A3022 RMK AO2 SLP250 T10171061
KAOO 311553Z AUTO 30007KT 10SM OVC018 M02/M06 A3023 RMK AO2 SLP254 T10171061
KAOO 311453Z AUTO 33008KT 10SM OVC022 M02/M06 A3022 RMK AO2 SLP247 T10171061 51007
KAOO 311353Z AUTO 31010KT 10SM BKN022 OVC060 M01/M06 A3022 RMK AO2 SLP245 T10111061
KAOO 311253Z AUTO 31006KT 10SM FEW015 OVC020 M02/M06 A3021 RMK AO2 SLP243 T10171056
KAOO 311153Z AUTO 31011KT 10SM OVC023 M01/M05 A3020 RMK AO2 SLP238 60000 T10111050 10017 21011 51025
KAOO 311053Z AUTO 32007KT 10SM BKN016 OVC075 M01/M04 A3016 RMK AO2 SLP226 T10061039
KAOO 311006Z AUTO 31007KT 10SM FEW018 BKN026 OVC050 M01/M03 A3015 RMK AO2 T10061033
KAOO 310953Z AUTO 30006KT 9SM FEW021 SCT026 OVC055 M01/M04 A3015 RMK AO2 SNB36E51 SLP222 P0000 T10061039
KAOO 310853Z AUTO 31010KT 10SM SCT028 BKN050 00/M04 A3012 RMK AO2 SLP209 60000 T00001039 50008
KAOO 310753Z AUTO 30004KT 10SM FEW020 OVC041 00/M03 A3012 RMK AO2 SNB04E18 SLP211 P0000 T00001028
KAOO 310653Z AUTO 34006KT 10SM SCT014 OVC038 01/M02 A3011 RMK AO2 SLP204 T00111017
KAOO 310553Z AUTO 32007KT 10SM SCT036 OVC044 02/M02 A3009 RMK AO2 SLP200 60000 T00171017 10072 20017 51006
KAOO 310539Z AUTO 31009KT 10SM SCT022 OVC042 02/M02 A3009 RMK AO2 T00171017
KAOO 310453Z AUTO 32005KT 10SM BKN015 OVC023 02/M01 A3009 RMK AO2 SLP201 T00221006 401060017
KAOO 310423Z AUTO 31009KT 10SM BKN015 OVC024 03/00 A3010 RMK AO2 T00280000
KAOO 310353Z AUTO 31006KT 10SM BKN014 OVC029 04/01 A3008 RMK AO2 SLP195 T00390006
KAOO 310253Z AUTO 31003KT 10SM BKN021 OVC027 04/02 A3009 RMK AO2 SLP197 60000 T00440017 50002
KAOO 310217Z AUTO 31007KT 10SM SCT014 OVC020 05/02 A3009 RMK AO2 T00500022
KAOO 310153Z AUTO 32008KT 10SM OVC012 05/02 A3009 RMK AO2 RAB29E43 SLP199 P0000 T00500022
KAOO 310053Z AUTO 30005KT 9SM BKN012 OVC018 06/04 A3008 RMK AO2 SLP197 T00610039
KAOO 302353Z AUTO 31006KT 10SM OVC023 07/04 A3008 RMK AO2 SLP194 T00720039 10106 20072 51009
KAOO 302253Z AUTO 22010KT 10SM BKN027 OVC034 09/04 A3007 RMK AO2 SLP192 T00890039
KAOO 302246Z AUTO 22009KT 10SM BKN028 OVC034 08/04 A3007 RMK AO2 T00830039
KAOO 302153Z AUTO 00000KT 10SM SCT033 OVC090 09/04 A3006 RMK AO2 SLP187 T00890039
KAOO 302132Z AUTO 26004KT 10SM FEW025 OVC033 09/04 A3006 RMK AO2 T00890044
KAOO 302053Z AUTO 00000KT 10SM OVC026 09/04 A3005 RMK AO2 SLP182 T00940039 56004
KAOO 302041Z AUTO 30004KT 10SM BKN027 OVC033 09/04 A3007 RMK AO2 T00940039
KAOO 301953Z AUTO 26007KT 10SM BKN034 OVC043 09/04 A3005 RMK AO2 SLP183 T00940039
KAOO 301930Z AUTO 27009KT 10SM FEW024 OVC033 10/04 A3005 RMK AO2 T01000044
KAOO 301908Z AUTO 29008KT 10SM BKN024 BKN031 10/04 A3004 RMK AO2 T01000044
KAOO 301853Z AUTO 26008KT 10SM SCT022 11/05 A3004 RMK AO2 SLP180 T01060050
KAOO 301842Z AUTO 25011KT 10SM SCT020 10/05 A3004 RMK AO2 T01000050
KAOO 301753Z AUTO 23012KT 10SM BKN020 09/05 A3006 RMK AO2 SLP186 T00940050 10094 20017 58032
KAOO 301653Z AUTO 22009KT 10SM OVC019 08/04 A3013 RMK AO2 SLP211 T00780039
KAOO 301553Z AUTO 22009KT 10SM BKN019 OVC026 08/05 A3015 RMK AO2 SLP216 T00830050
KAOO 301453Z AUTO 25003KT 10SM OVC027 06/04 A3016 RMK AO2 SLP222 T00610039 53013
KAOO 301401Z AUTO 00000KT 10SM BKN025 05/03 A3015 RMK AO2 T00500033
KAOO 301353Z AUTO 31003KT 10SM SCT026 05/03 A3014 RMK AO2 SLP217 T00500033
KAOO 301253Z AUTO 26004KT 6SM BR CLR 02/02 A3013 RMK AO2 SLP213 T00220017
KAOO 301153Z AUTO 18004KT 10SM CLR 03/02 A3012 RMK AO2 SLP210 70001 T00330017 10056 20022 55005
KAOO 301053Z AUTO 13003KT 9SM FEW026 OVC044 03/02 A3012 RMK AO2 SLP208 T00330022
KAOO 301017Z AUTO 00000KT 10SM FEW011 BKN028 OVC041 04/02 A3014 RMK AO2 T00390022
KAOO 300953Z AUTO 00000KT 10SM SCT011 OVC031 05/03 A3014 RMK AO2 SLP214 T00500033
KAOO 300943Z AUTO 00000KT 10SM FEW009 BKN032 05/03 A3014 RMK AO2 T00500033
KAOO 300853Z AUTO 21003KT 10SM OVC039 05/03 A3013 RMK AO2 SLP213 T00500033 56001
KAOO 300836Z AUTO 19004KT 10SM FEW016 BKN038 OVC047 04/03 A3013 RMK AO2 T00440028
KAOO 300829Z AUTO 00000KT 10SM BKN017 OVC038 05/03 A3013 RMK AO2 T00500033
KAOO 300822Z AUTO 00000KT 10SM SCT017 OVC038 04/03 A3014 RMK AO2 T00440033
KAOO 300815Z AUTO 00000KT 10SM BKN017 OVC036 04/03 A3014 RMK AO2 T00440033
KAOO 300753Z AUTO 00000KT 10SM OVC038 05/03 A3013 RMK AO2 SLP213 T00500033
KAOO 311722Z 3118/0118 32008KT P6SM OVC025 
     FM010400 31007KT 6SM -SN BR BKN035 
     FM011000 31009KT P6SM BKN035